메인 페이지
METAR-TAF:

METAR-TAF

공항 :

상파울루 구아룰류스 국제공항, 상파울루, 브라질

위도: 23-26S, 경도: 046-28W, 고도: 750m

현재 날씨관측

예보는 1 시간 2분 전, 06:00시(UTC)에 발표되었습니다.
동남동7kt
온도 15°C
습도 88%
기압 1024 hPa
시정 10km 이상
고도 1500ft 상공 흐림

METAR: SBGR 230600Z 12007KT 9999 OVC015 15/13 Q1024

시각: 04:02 (07:02 UTC)

예보

예보는 5 시간 2분 전, 02:00시(UTC)에 발표되었습니다.
예보 대상 시간: 23일 06시부터 24일 12시까지 (UTC)
남남동8kt
시정 10km 이상
고도 1000ft 상공 구름 많음
일시적
23일 06시부터 23일 12시까지 (UTC)
남동5kt
시정: 5000m
고도 700ft 상공 구름 많음
고도 1500ft 상공 흐림
이슬비, 박무
전환 중
23일 12시부터 23일 14시까지 (UTC)
고도 1300ft 상공 구름 조금
고도 2000ft 상공 구름 많음
전환 중
23일 14시부터 23일 16시까지 (UTC)
남남동5kt
전환 중
23일 19시부터 23일 21시까지 (UTC)
고도 1000ft 상공 구름 많음
전환 중
23일 22시부터 23일 24시까지 (UTC)
고도 800ft 상공 구름 많음
확률 30%
24일 07시부터 24일 11시까지 (UTC)
시정: 5000m
고도 600ft 상공 구름 많음
박무

TAF: SBGR 230200Z 2306/2412 16008KT 9999 BKN010 TN13/2308Z TX20/2316Z TEMPO 2306/2312 13005KT 5000 DZ BR BKN007 OVC015 BECMG 2312/2314 FEW013 BKN020 BECMG 2314/2316 15005KT BECMG 2319/2321 BKN010 BECMG 2322/2324 BKN008 PROB30 2407/2411 5000 BR BKN006 RMK PGD

4,000개 이상의 공항 관측 자료 및 예보 (METAR 및 TAF 보고).

지도상에서 검색 가능한 기상관측소가 노란 점과 빨간 점으로 표시되어 있습니다.

기상관측소 명을 보려면 표시 위로 마우스를 이동하세요.

날씨 관측과 예보를 보려면 클릭하세요.

지도 변경 : 확대하려면 엑스 표시가 있는 녹색 버튼, 축소하려면 빼기 표시가 있는 녹색 버튼, 다음 페이지의 지도를 보려면 녹색 화살표를 클릭하세요.


METAR-TAF: